sensor_id;sensor_type;location;lat;lon;timestamp;temperature;humidity
49222;DHT22;35047;37.588;-122.048;2023-08-12T00:00:45;36.20;42.40
49222;DHT22;35047;37.588;-122.048;2023-08-12T00:03:11;36.20;42.80
49222;DHT22;35047;37.588;-122.048;2023-08-12T00:05:38;36.10;43.20
49222;DHT22;35047;37.588;-122.048;2023-08-12T00:08:06;35.90;43.00
49222;DHT22;35047;37.588;-122.048;2023-08-12T00:10:32;35.80;43.10
49222;DHT22;35047;37.588;-122.048;2023-08-12T00:12:58;35.80;43.20
49222;DHT22;35047;37.588;-122.048;2023-08-12T00:15:25;35.70;43.10
49222;DHT22;35047;37.588;-122.048;2023-08-12T00:17:51;35.60;43.30
49222;DHT22;35047;37.588;-122.048;2023-08-12T00:20:18;35.50;43.60
49222;DHT22;35047;37.588;-122.048;2023-08-12T00:22:45;35.40;43.50
49222;DHT22;35047;37.588;-122.048;2023-08-12T00:25:11;35.30;43.70
49222;DHT22;35047;37.588;-122.048;2023-08-12T00:27:38;35.20;43.90
49222;DHT22;35047;37.588;-122.048;2023-08-12T00:30:05;35.10;44.30
49222;DHT22;35047;37.588;-122.048;2023-08-12T00:32:32;35.00;44.20
49222;DHT22;35047;37.588;-122.048;2023-08-12T00:34:58;34.90;44.00
49222;DHT22;35047;37.588;-122.048;2023-08-12T00:37:25;34.80;43.90
49222;DHT22;35047;37.588;-122.048;2023-08-12T00:39:51;34.70;44.50
49222;DHT22;35047;37.588;-122.048;2023-08-12T00:42:17;34.60;44.40
49222;DHT22;35047;37.588;-122.048;2023-08-12T00:44:44;34.50;44.50
49222;DHT22;35047;37.588;-122.048;2023-08-12T00:47:10;34.40;44.30
49222;DHT22;35047;37.588;-122.048;2023-08-12T00:49:37;34.20;44.80
49222;DHT22;35047;37.588;-122.048;2023-08-12T00:52:05;34.10;45.10
49222;DHT22;35047;37.588;-122.048;2023-08-12T00:54:31;33.90;45.30
49222;DHT22;35047;37.588;-122.048;2023-08-12T00:56:57;33.80;45.50
49222;DHT22;35047;37.588;-122.048;2023-08-12T00:59:25;33.60;45.90
49222;DHT22;35047;37.588;-122.048;2023-08-12T01:01:52;33.50;45.80
49222;DHT22;35047;37.588;-122.048;2023-08-12T01:04:18;33.30;45.80
49222;DHT22;35047;37.588;-122.048;2023-08-12T01:06:45;33.10;46.30
49222;DHT22;35047;37.588;-122.048;2023-08-12T01:09:11;33.10;46.70
49222;DHT22;35047;37.588;-122.048;2023-08-12T01:11:54;33.00;46.90
49222;DHT22;35047;37.588;-122.048;2023-08-12T01:17:07;33.00;46.70
49222;DHT22;35047;37.588;-122.048;2023-08-12T01:22:03;33.00;46.70
49222;DHT22;35047;37.588;-122.048;2023-08-12T01:24:38;33.00;46.80
49222;DHT22;35047;37.588;-122.048;2023-08-12T01:27:06;32.90;47.00
49222;DHT22;35047;37.588;-122.048;2023-08-12T01:29:34;32.90;47.00
49222;DHT22;35047;37.588;-122.048;2023-08-12T01:34:47;32.80;47.40
49222;DHT22;35047;37.588;-122.048;2023-08-12T01:37:23;32.70;47.60
49222;DHT22;35047;37.588;-122.048;2023-08-12T01:39:51;32.70;48.10
49222;DHT22;35047;37.588;-122.048;2023-08-12T01:42:19;32.60;47.90
49222;DHT22;35047;37.588;-122.048;2023-08-12T01:44:46;32.60;48.10
49222;DHT22;35047;37.588;-122.048;2023-08-12T01:47:14;32.50;48.00
49222;DHT22;35047;37.588;-122.048;2023-08-12T01:49:40;32.40;47.90
49222;DHT22;35047;37.588;-122.048;2023-08-12T01:52:07;32.30;47.90
49222;DHT22;35047;37.588;-122.048;2023-08-12T01:54:33;32.20;48.00
49222;DHT22;35047;37.588;-122.048;2023-08-12T01:57:04;32.10;48.40
49222;DHT22;35047;37.588;-122.048;2023-08-12T01:59:35;31.90;48.40
49222;DHT22;35047;37.588;-122.048;2023-08-12T02:02:02;31.80;48.60
49222;DHT22;35047;37.588;-122.048;2023-08-12T02:04:29;31.50;48.80
49222;DHT22;35047;37.588;-122.048;2023-08-12T02:06:55;31.40;49.20
49222;DHT22;35047;37.588;-122.048;2023-08-12T02:09:21;31.20;50.30
49222;DHT22;35047;37.588;-122.048;2023-08-12T02:11:49;31.10;50.10
49222;DHT22;35047;37.588;-122.048;2023-08-12T02:14:15;30.90;50.50
49222;DHT22;35047;37.588;-122.048;2023-08-12T02:16:42;30.80;50.80
49222;DHT22;35047;37.588;-122.048;2023-08-12T02:19:12;30.60;51.00
49222;DHT22;35047;37.588;-122.048;2023-08-12T02:21:38;30.40;51.30
49222;DHT22;35047;37.588;-122.048;2023-08-12T02:24:05;30.30;51.60
49222;DHT22;35047;37.588;-122.048;2023-08-12T02:26:31;30.10;51.90
49222;DHT22;35047;37.588;-122.048;2023-08-12T02:28:58;30.00;52.20
49222;DHT22;35047;37.588;-122.048;2023-08-12T02:31:24;29.80;52.20
49222;DHT22;35047;37.588;-122.048;2023-08-12T02:33:51;29.70;52.50
49222;DHT22;35047;37.588;-122.048;2023-08-12T02:36:17;29.60;52.80
49222;DHT22;35047;37.588;-122.048;2023-08-12T02:38:44;29.40;53.00
49222;DHT22;35047;37.588;-122.048;2023-08-12T02:41:10;29.30;53.20
49222;DHT22;35047;37.588;-122.048;2023-08-12T02:43:37;29.20;53.40
49222;DHT22;35047;37.588;-122.048;2023-08-12T02:46:03;29.10;53.60
49222;DHT22;35047;37.588;-122.048;2023-08-12T02:48:30;28.90;53.70
49222;DHT22;35047;37.588;-122.048;2023-08-12T02:50:57;28.90;53.90
49222;DHT22;35047;37.588;-122.048;2023-08-12T02:53:23;28.70;54.00
49222;DHT22;35047;37.588;-122.048;2023-08-12T02:55:49;28.60;54.20
49222;DHT22;35047;37.588;-122.048;2023-08-12T02:58:16;28.50;54.40
49222;DHT22;35047;37.588;-122.048;2023-08-12T03:00:43;28.50;54.60
49222;DHT22;35047;37.588;-122.048;2023-08-12T03:03:12;28.40;54.70
49222;DHT22;35047;37.588;-122.048;2023-08-12T03:05:38;28.30;54.70
49222;DHT22;35047;37.588;-122.048;2023-08-12T03:08:05;28.20;54.80
49222;DHT22;35047;37.588;-122.048;2023-08-12T03:10:33;28.10;54.90
49222;DHT22;35047;37.588;-122.048;2023-08-12T03:13:00;28.00;55.20
49222;DHT22;35047;37.588;-122.048;2023-08-12T03:15:26;27.90;55.30
49222;DHT22;35047;37.588;-122.048;2023-08-12T03:17:53;27.80;55.60
49222;DHT22;35047;37.588;-122.048;2023-08-12T03:20:19;27.70;55.90
49222;DHT22;35047;37.588;-122.048;2023-08-12T03:22:46;27.60;56.00
49222;DHT22;35047;37.588;-122.048;2023-08-12T03:25:12;27.50;56.20
49222;DHT22;35047;37.588;-122.048;2023-08-12T03:27:41;27.40;56.50
49222;DHT22;35047;37.588;-122.048;2023-08-12T03:30:08;27.30;56.60
49222;DHT22;35047;37.588;-122.048;2023-08-12T03:32:35;27.20;56.80
49222;DHT22;35047;37.588;-122.048;2023-08-12T03:35:01;27.10;57.00
49222;DHT22;35047;37.588;-122.048;2023-08-12T03:37:28;27.10;57.20
49222;DHT22;35047;37.588;-122.048;2023-08-12T03:39:54;27.00;57.30
49222;DHT22;35047;37.588;-122.048;2023-08-12T03:42:21;26.90;57.60
49222;DHT22;35047;37.588;-122.048;2023-08-12T03:44:47;26.90;57.70
49222;DHT22;35047;37.588;-122.048;2023-08-12T03:47:13;26.80;57.80
49222;DHT22;35047;37.588;-122.048;2023-08-12T03:49:40;26.70;58.00
49222;DHT22;35047;37.588;-122.048;2023-08-12T03:52:06;26.60;58.20
49222;DHT22;35047;37.588;-122.048;2023-08-12T03:54:33;26.50;58.60
49222;DHT22;35047;37.588;-122.048;2023-08-12T03:57:00;26.50;59.00
49222;DHT22;35047;37.588;-122.048;2023-08-12T03:59:26;26.40;59.00
49222;DHT22;35047;37.588;-122.048;2023-08-12T04:01:53;26.30;59.50
49222;DHT22;35047;37.588;-122.048;2023-08-12T04:04:19;26.30;59.90
49222;DHT22;35047;37.588;-122.048;2023-08-12T04:06:46;26.20;60.10
49222;DHT22;35047;37.588;-122.048;2023-08-12T04:09:18;26.10;60.30
49222;DHT22;35047;37.588;-122.048;2023-08-12T04:11:45;26.10;60.40
49222;DHT22;35047;37.588;-122.048;2023-08-12T04:14:12;26.10;60.60
49222;DHT22;35047;37.588;-122.048;2023-08-12T04:16:39;26.00;60.80
49222;DHT22;35047;37.588;-122.048;2023-08-12T04:19:06;25.90;60.60
49222;DHT22;35047;37.588;-122.048;2023-08-12T04:21:32;25.90;60.70
49222;DHT22;35047;37.588;-122.048;2023-08-12T04:23:58;25.80;60.80
49222;DHT22;35047;37.588;-122.048;2023-08-12T04:26:25;25.80;60.90
49222;DHT22;35047;37.588;-122.048;2023-08-12T04:28:51;25.70;61.00
49222;DHT22;35047;37.588;-122.048;2023-08-12T04:31:18;25.70;61.00
49222;DHT22;35047;37.588;-122.048;2023-08-12T04:33:44;25.60;61.10
49222;DHT22;35047;37.588;-122.048;2023-08-12T04:36:11;25.60;61.20
49222;DHT22;35047;37.588;-122.048;2023-08-12T04:38:38;25.60;61.40
49222;DHT22;35047;37.588;-122.048;2023-08-12T04:41:05;25.50;61.60
49222;DHT22;35047;37.588;-122.048;2023-08-12T04:43:31;25.40;62.40
49222;DHT22;35047;37.588;-122.048;2023-08-12T04:45:58;25.40;61.90
49222;DHT22;35047;37.588;-122.048;2023-08-12T04:48:25;25.30;61.90
49222;DHT22;35047;37.588;-122.048;2023-08-12T04:50:51;25.30;62.20
49222;DHT22;35047;37.588;-122.048;2023-08-12T04:53:18;25.30;63.10
49222;DHT22;35047;37.588;-122.048;2023-08-12T04:55:45;25.20;62.50
49222;DHT22;35047;37.588;-122.048;2023-08-12T04:58:11;25.20;62.70
49222;DHT22;35047;37.588;-122.048;2023-08-12T05:00:38;25.10;63.00
49222;DHT22;35047;37.588;-122.048;2023-08-12T05:03:04;25.10;63.20
49222;DHT22;35047;37.588;-122.048;2023-08-12T05:05:31;25.00;63.30
49222;DHT22;35047;37.588;-122.048;2023-08-12T05:07:57;25.00;63.50
49222;DHT22;35047;37.588;-122.048;2023-08-12T05:10:24;25.00;63.60
49222;DHT22;35047;37.588;-122.048;2023-08-12T05:12:50;24.90;63.70
49222;DHT22;35047;37.588;-122.048;2023-08-12T05:15:20;24.90;63.80
49222;DHT22;35047;37.588;-122.048;2023-08-12T05:17:46;24.80;63.90
49222;DHT22;35047;37.588;-122.048;2023-08-12T05:20:13;24.80;64.10
49222;DHT22;35047;37.588;-122.048;2023-08-12T05:22:39;24.80;64.20
49222;DHT22;35047;37.588;-122.048;2023-08-12T05:25:06;24.70;64.40
49222;DHT22;35047;37.588;-122.048;2023-08-12T05:27:33;24.70;64.60
49222;DHT22;35047;37.588;-122.048;2023-08-12T05:29:59;24.60;64.50
49222;DHT22;35047;37.588;-122.048;2023-08-12T05:32:26;24.60;64.60
49222;DHT22;35047;37.588;-122.048;2023-08-12T05:34:54;24.60;64.70
49222;DHT22;35047;37.588;-122.048;2023-08-12T05:37:21;24.50;64.80
49222;DHT22;35047;37.588;-122.048;2023-08-12T05:39:47;24.50;64.90
49222;DHT22;35047;37.588;-122.048;2023-08-12T05:42:14;24.50;65.00
49222;DHT22;35047;37.588;-122.048;2023-08-12T05:44:41;24.40;65.00
49222;DHT22;35047;37.588;-122.048;2023-08-12T05:47:08;24.40;65.10
49222;DHT22;35047;37.588;-122.048;2023-08-12T05:49:34;24.30;65.20
49222;DHT22;35047;37.588;-122.048;2023-08-12T05:52:01;24.30;65.30
49222;DHT22;35047;37.588;-122.048;2023-08-12T05:54:28;24.30;65.60
49222;DHT22;35047;37.588;-122.048;2023-08-12T05:56:54;24.20;65.70
49222;DHT22;35047;37.588;-122.048;2023-08-12T05:59:21;24.20;66.00
49222;DHT22;35047;37.588;-122.048;2023-08-12T06:01:47;24.20;66.10
49222;DHT22;35047;37.588;-122.048;2023-08-12T06:04:14;24.10;66.00
49222;DHT22;35047;37.588;-122.048;2023-08-12T06:06:40;24.10;66.10
49222;DHT22;35047;37.588;-122.048;2023-08-12T06:09:07;24.10;66.20
49222;DHT22;35047;37.588;-122.048;2023-08-12T06:11:34;24.00;66.40
49222;DHT22;35047;37.588;-122.048;2023-08-12T06:14:00;24.00;66.50
49222;DHT22;35047;37.588;-122.048;2023-08-12T06:16:26;24.00;66.50
49222;DHT22;35047;37.588;-122.048;2023-08-12T06:18:53;24.00;66.60
49222;DHT22;35047;37.588;-122.048;2023-08-12T06:21:19;24.00;66.80
49222;DHT22;35047;37.588;-122.048;2023-08-12T06:23:46;24.00;67.00
49222;DHT22;35047;37.588;-122.048;2023-08-12T06:26:12;23.90;67.00
49222;DHT22;35047;37.588;-122.048;2023-08-12T06:28:39;23.90;67.10
49222;DHT22;35047;37.588;-122.048;2023-08-12T06:31:05;23.80;67.40
49222;DHT22;35047;37.588;-122.048;2023-08-12T06:33:32;23.90;67.40
49222;DHT22;35047;37.588;-122.048;2023-08-12T06:35:58;23.80;67.50
49222;DHT22;35047;37.588;-122.048;2023-08-12T06:38:25;23.80;67.60
49222;DHT22;35047;37.588;-122.048;2023-08-12T06:40:51;23.80;67.70
49222;DHT22;35047;37.588;-122.048;2023-08-12T06:43:18;23.80;67.80
49222;DHT22;35047;37.588;-122.048;2023-08-12T06:45:44;23.70;67.80
49222;DHT22;35047;37.588;-122.048;2023-08-12T06:48:11;23.70;67.80
49222;DHT22;35047;37.588;-122.048;2023-08-12T06:50:38;23.70;67.80
49222;DHT22;35047;37.588;-122.048;2023-08-12T06:53:04;23.70;67.80
49222;DHT22;35047;37.588;-122.048;2023-08-12T06:55:31;23.70;67.80
49222;DHT22;35047;37.588;-122.048;2023-08-12T06:57:57;23.70;67.80
49222;DHT22;35047;37.588;-122.048;2023-08-12T07:00:24;23.60;67.80
49222;DHT22;35047;37.588;-122.048;2023-08-12T07:02:50;23.60;67.90
49222;DHT22;35047;37.588;-122.048;2023-08-12T07:05:17;23.60;67.80
49222;DHT22;35047;37.588;-122.048;2023-08-12T07:07:43;23.60;67.90
49222;DHT22;35047;37.588;-122.048;2023-08-12T07:10:10;23.60;68.00
49222;DHT22;35047;37.588;-122.048;2023-08-12T07:12:37;23.50;67.90
49222;DHT22;35047;37.588;-122.048;2023-08-12T07:15:04;23.50;68.60
49222;DHT22;35047;37.588;-122.048;2023-08-12T07:17:30;23.50;67.90
49222;DHT22;35047;37.588;-122.048;2023-08-12T07:19:57;23.50;68.00
49222;DHT22;35047;37.588;-122.048;2023-08-12T07:22:23;23.40;68.00
49222;DHT22;35047;37.588;-122.048;2023-08-12T07:24:50;23.40;68.00
49222;DHT22;35047;37.588;-122.048;2023-08-12T07:27:18;23.40;68.00
49222;DHT22;35047;37.588;-122.048;2023-08-12T07:29:45;23.40;68.10
49222;DHT22;35047;37.588;-122.048;2023-08-12T07:32:12;23.30;68.20
49222;DHT22;35047;37.588;-122.048;2023-08-12T07:34:39;23.30;68.30
49222;DHT22;35047;37.588;-122.048;2023-08-12T07:37:05;23.30;68.30
49222;DHT22;35047;37.588;-122.048;2023-08-12T07:39:32;23.30;68.40
49222;DHT22;35047;37.588;-122.048;2023-08-12T07:41:58;23.30;68.50
49222;DHT22;35047;37.588;-122.048;2023-08-12T07:44:25;23.30;68.50
49222;DHT22;35047;37.588;-122.048;2023-08-12T07:46:51;23.20;68.30
49222;DHT22;35047;37.588;-122.048;2023-08-12T07:49:18;23.20;68.60
49222;DHT22;35047;37.588;-122.048;2023-08-12T07:51:44;23.20;68.70
49222;DHT22;35047;37.588;-122.048;2023-08-12T07:54:11;23.20;68.80
49222;DHT22;35047;37.588;-122.048;2023-08-12T07:56:38;23.20;68.80
49222;DHT22;35047;37.588;-122.048;2023-08-12T07:59:05;23.10;68.80
49222;DHT22;35047;37.588;-122.048;2023-08-12T08:01:31;23.10;68.90
49222;DHT22;35047;37.588;-122.048;2023-08-12T08:03:57;23.10;69.00
49222;DHT22;35047;37.588;-122.048;2023-08-12T08:06:24;23.10;69.00
49222;DHT22;35047;37.588;-122.048;2023-08-12T08:08:50;23.00;68.90
49222;DHT22;35047;37.588;-122.048;2023-08-12T08:11:17;23.00;69.10
49222;DHT22;35047;37.588;-122.048;2023-08-12T08:13:43;23.00;69.20
49222;DHT22;35047;37.588;-122.048;2023-08-12T08:16:10;23.00;69.20
49222;DHT22;35047;37.588;-122.048;2023-08-12T08:18:36;23.00;69.00
49222;DHT22;35047;37.588;-122.048;2023-08-12T08:21:03;22.90;69.10
49222;DHT22;35047;37.588;-122.048;2023-08-12T08:23:29;23.00;69.30
49222;DHT22;35047;37.588;-122.048;2023-08-12T08:25:56;22.90;69.00
49222;DHT22;35047;37.588;-122.048;2023-08-12T08:28:22;22.90;69.00
49222;DHT22;35047;37.588;-122.048;2023-08-12T08:30:49;22.90;68.90
49222;DHT22;35047;37.588;-122.048;2023-08-12T08:33:16;22.90;69.10
49222;DHT22;35047;37.588;-122.048;2023-08-12T08:35:42;22.80;69.10
49222;DHT22;35047;37.588;-122.048;2023-08-12T08:38:08;22.80;69.10
49222;DHT22;35047;37.588;-122.048;2023-08-12T08:40:35;22.80;69.20
49222;DHT22;35047;37.588;-122.048;2023-08-12T08:43:04;22.80;69.40
49222;DHT22;35047;37.588;-122.048;2023-08-12T08:45:33;22.80;69.50
49222;DHT22;35047;37.588;-122.048;2023-08-12T08:48:03;22.80;69.40
49222;DHT22;35047;37.588;-122.048;2023-08-12T08:50:31;22.70;69.40
49222;DHT22;35047;37.588;-122.048;2023-08-12T08:52:58;22.70;69.50
49222;DHT22;35047;37.588;-122.048;2023-08-12T08:55:26;22.70;69.80
49222;DHT22;35047;37.588;-122.048;2023-08-12T08:57:52;22.70;69.90
49222;DHT22;35047;37.588;-122.048;2023-08-12T09:00:19;22.60;69.70
49222;DHT22;35047;37.588;-122.048;2023-08-12T09:02:47;22.60;69.80
49222;DHT22;35047;37.588;-122.048;2023-08-12T09:05:15;22.60;69.80
49222;DHT22;35047;37.588;-122.048;2023-08-12T09:07:41;22.60;69.70
49222;DHT22;35047;37.588;-122.048;2023-08-12T09:10:09;22.60;70.00
49222;DHT22;35047;37.588;-122.048;2023-08-12T09:12:36;22.50;69.80
49222;DHT22;35047;37.588;-122.048;2023-08-12T09:15:04;22.50;70.00
49222;DHT22;35047;37.588;-122.048;2023-08-12T09:17:32;22.50;70.10
49222;DHT22;35047;37.588;-122.048;2023-08-12T09:19:59;22.50;70.10
49222;DHT22;35047;37.588;-122.048;2023-08-12T09:22:26;22.40;70.10
49222;DHT22;35047;37.588;-122.048;2023-08-12T09:24:58;22.50;70.20
49222;DHT22;35047;37.588;-122.048;2023-08-12T09:27:25;22.40;70.10
49222;DHT22;35047;37.588;-122.048;2023-08-12T09:29:56;22.50;70.00
49222;DHT22;35047;37.588;-122.048;2023-08-12T09:32:25;22.50;69.60
49222;DHT22;35047;37.588;-122.048;2023-08-12T09:34:53;22.50;69.80
49222;DHT22;35047;37.588;-122.048;2023-08-12T09:37:21;22.50;70.00
49222;DHT22;35047;37.588;-122.048;2023-08-12T09:39:52;22.40;69.90
49222;DHT22;35047;37.588;-122.048;2023-08-12T09:42:19;22.40;70.10
49222;DHT22;35047;37.588;-122.048;2023-08-12T09:44:46;22.40;70.10
49222;DHT22;35047;37.588;-122.048;2023-08-12T09:47:12;22.30;70.20
49222;DHT22;35047;37.588;-122.048;2023-08-12T09:49:40;22.30;70.30
49222;DHT22;35047;37.588;-122.048;2023-08-12T09:52:07;22.30;70.50
49222;DHT22;35047;37.588;-122.048;2023-08-12T09:54:34;22.30;70.50
49222;DHT22;35047;37.588;-122.048;2023-08-12T09:57:05;22.30;70.70
49222;DHT22;35047;37.588;-122.048;2023-08-12T09:59:35;22.30;70.90
49222;DHT22;35047;37.588;-122.048;2023-08-12T10:02:02;22.20;71.00
49222;DHT22;35047;37.588;-122.048;2023-08-12T10:04:41;22.20;71.30
49222;DHT22;35047;37.588;-122.048;2023-08-12T10:07:13;22.20;71.30
49222;DHT22;35047;37.588;-122.048;2023-08-12T10:09:40;22.20;71.20
49222;DHT22;35047;37.588;-122.048;2023-08-12T10:12:07;22.20;70.90
49222;DHT22;35047;37.588;-122.048;2023-08-12T10:14:35;22.10;70.80
49222;DHT22;35047;37.588;-122.048;2023-08-12T10:17:01;22.10;71.00
49222;DHT22;35047;37.588;-122.048;2023-08-12T10:19:29;22.10;71.10
49222;DHT22;35047;37.588;-122.048;2023-08-12T10:21:57;22.10;71.10
49222;DHT22;35047;37.588;-122.048;2023-08-12T10:24:27;22.00;71.30
49222;DHT22;35047;37.588;-122.048;2023-08-12T10:26:53;22.00;71.30
49222;DHT22;35047;37.588;-122.048;2023-08-12T10:29:22;22.00;71.20
49222;DHT22;35047;37.588;-122.048;2023-08-12T10:31:50;22.00;71.30
49222;DHT22;35047;37.588;-122.048;2023-08-12T10:34:22;22.00;71.30
49222;DHT22;35047;37.588;-122.048;2023-08-12T10:36:58;21.90;71.40
49222;DHT22;35047;37.588;-122.048;2023-08-12T10:39:27;21.90;71.70
49222;DHT22;35047;37.588;-122.048;2023-08-12T10:41:58;21.90;71.80
49222;DHT22;35047;37.588;-122.048;2023-08-12T10:44:39;21.90;71.90
49222;DHT22;35047;37.588;-122.048;2023-08-12T10:47:08;21.90;71.80
49222;DHT22;35047;37.588;-122.048;2023-08-12T10:49:50;21.90;71.90
49222;DHT22;35047;37.588;-122.048;2023-08-12T10:52:33;21.80;72.00
49222;DHT22;35047;37.588;-122.048;2023-08-12T10:55:22;21.80;72.00
49222;DHT22;35047;37.588;-122.048;2023-08-12T10:57:54;21.80;72.00
49222;DHT22;35047;37.588;-122.048;2023-08-12T11:00:24;21.80;72.10
49222;DHT22;35047;37.588;-122.048;2023-08-12T11:02:52;21.80;72.20
49222;DHT22;35047;37.588;-122.048;2023-08-12T11:05:20;21.70;72.30
49222;DHT22;35047;37.588;-122.048;2023-08-12T11:10:25;21.70;72.80
49222;DHT22;35047;37.588;-122.048;2023-08-12T11:18:13;21.70;72.90
49222;DHT22;35047;37.588;-122.048;2023-08-12T11:20:40;21.70;72.90
49222;DHT22;35047;37.588;-122.048;2023-08-12T11:23:08;21.70;72.80
49222;DHT22;35047;37.588;-122.048;2023-08-12T11:25:37;21.60;72.80
49222;DHT22;35047;37.588;-122.048;2023-08-12T11:28:07;21.60;72.90
49222;DHT22;35047;37.588;-122.048;2023-08-12T11:30:34;21.60;73.00
49222;DHT22;35047;37.588;-122.048;2023-08-12T11:33:01;21.60;73.00
49222;DHT22;35047;37.588;-122.048;2023-08-12T11:35:29;21.60;72.90
49222;DHT22;35047;37.588;-122.048;2023-08-12T11:37:57;21.60;73.00
49222;DHT22;35047;37.588;-122.048;2023-08-12T11:40:25;21.60;73.00
49222;DHT22;35047;37.588;-122.048;2023-08-12T11:42:52;21.60;72.90
49222;DHT22;35047;37.588;-122.048;2023-08-12T11:45:21;21.60;73.00
49222;DHT22;35047;37.588;-122.048;2023-08-12T11:47:48;21.50;73.20
49222;DHT22;35047;37.588;-122.048;2023-08-12T11:50:20;21.50;73.10
49222;DHT22;35047;37.588;-122.048;2023-08-12T11:52:49;21.50;73.20
49222;DHT22;35047;37.588;-122.048;2023-08-12T11:55:16;21.50;73.30
49222;DHT22;35047;37.588;-122.048;2023-08-12T11:57:44;21.50;73.50
49222;DHT22;35047;37.588;-122.048;2023-08-12T12:00:12;21.50;73.50
49222;DHT22;35047;37.588;-122.048;2023-08-12T12:02:55;21.50;73.70
49222;DHT22;35047;37.588;-122.048;2023-08-12T12:05:23;21.50;73.60
49222;DHT22;35047;37.588;-122.048;2023-08-12T12:07:52;21.50;73.60
49222;DHT22;35047;37.588;-122.048;2023-08-12T12:10:26;21.40;73.70
49222;DHT22;35047;37.588;-122.048;2023-08-12T12:12:55;21.40;74.30
49222;DHT22;35047;37.588;-122.048;2023-08-12T12:15:21;21.40;73.90
49222;DHT22;35047;37.588;-122.048;2023-08-12T12:17:49;21.40;74.30
49222;DHT22;35047;37.588;-122.048;2023-08-12T12:20:16;21.40;74.60
49222;DHT22;35047;37.588;-122.048;2023-08-12T12:22:44;21.40;74.80
49222;DHT22;35047;37.588;-122.048;2023-08-12T12:25:16;21.40;74.90
49222;DHT22;35047;37.588;-122.048;2023-08-12T12:27:46;21.40;75.30
49222;DHT22;35047;37.588;-122.048;2023-08-12T12:30:14;21.40;75.70
49222;DHT22;35047;37.588;-122.048;2023-08-12T12:32:41;21.40;76.00
49222;DHT22;35047;37.588;-122.048;2023-08-12T12:35:08;21.40;76.20
49222;DHT22;35047;37.588;-122.048;2023-08-12T12:37:35;21.50;76.20
49222;DHT22;35047;37.588;-122.048;2023-08-12T12:40:02;21.50;76.20
49222;DHT22;35047;37.588;-122.048;2023-08-12T12:42:29;21.50;76.40
49222;DHT22;35047;37.588;-122.048;2023-08-12T12:44:56;21.50;76.40
49222;DHT22;35047;37.588;-122.048;2023-08-12T12:47:22;21.50;76.50
49222;DHT22;35047;37.588;-122.048;2023-08-12T12:49:49;21.50;76.60
49222;DHT22;35047;37.588;-122.048;2023-08-12T12:52:15;21.50;76.70
49222;DHT22;35047;37.588;-122.048;2023-08-12T12:54:42;21.50;76.80
49222;DHT22;35047;37.588;-122.048;2023-08-12T12:57:08;21.50;77.00
49222;DHT22;35047;37.588;-122.048;2023-08-12T12:59:35;21.60;77.10
49222;DHT22;35047;37.588;-122.048;2023-08-12T13:02:01;21.60;77.20
49222;DHT22;35047;37.588;-122.048;2023-08-12T13:04:28;21.60;77.20
49222;DHT22;35047;37.588;-122.048;2023-08-12T13:06:55;21.60;77.20
49222;DHT22;35047;37.588;-122.048;2023-08-12T13:09:22;21.60;77.10
49222;DHT22;35047;37.588;-122.048;2023-08-12T13:11:48;21.70;77.00
49222;DHT22;35047;37.588;-122.048;2023-08-12T13:14:15;21.70;77.00
49222;DHT22;35047;37.588;-122.048;2023-08-12T13:16:44;21.70;76.80
49222;DHT22;35047;37.588;-122.048;2023-08-12T13:19:11;21.70;76.70
49222;DHT22;35047;37.588;-122.048;2023-08-12T13:21:38;21.70;76.80
49222;DHT22;35047;37.588;-122.048;2023-08-12T13:24:04;21.70;76.90
49222;DHT22;35047;37.588;-122.048;2023-08-12T13:26:31;21.70;77.10
49222;DHT22;35047;37.588;-122.048;2023-08-12T13:28:57;21.70;77.20
49222;DHT22;35047;37.588;-122.048;2023-08-12T13:31:24;21.70;77.20
49222;DHT22;35047;37.588;-122.048;2023-08-12T13:33:51;21.70;77.20
49222;DHT22;35047;37.588;-122.048;2023-08-12T13:36:18;21.70;77.20
49222;DHT22;35047;37.588;-122.048;2023-08-12T13:38:44;21.70;77.30
49222;DHT22;35047;37.588;-122.048;2023-08-12T13:41:11;21.70;77.50
49222;DHT22;35047;37.588;-122.048;2023-08-12T13:43:37;21.70;77.50
49222;DHT22;35047;37.588;-122.048;2023-08-12T13:46:04;21.80;77.70
49222;DHT22;35047;37.588;-122.048;2023-08-12T13:48:30;21.80;77.80
49222;DHT22;35047;37.588;-122.048;2023-08-12T13:50:57;21.80;77.90
49222;DHT22;35047;37.588;-122.048;2023-08-12T13:53:23;21.80;78.00
49222;DHT22;35047;37.588;-122.048;2023-08-12T13:55:50;21.90;78.00
49222;DHT22;35047;37.588;-122.048;2023-08-12T13:58:16;21.90;77.90
49222;DHT22;35047;37.588;-122.048;2023-08-12T14:00:43;22.00;77.60
49222;DHT22;35047;37.588;-122.048;2023-08-12T14:03:09;22.00;77.70
49222;DHT22;35047;37.588;-122.048;2023-08-12T14:05:36;22.00;77.80
49222;DHT22;35047;37.588;-122.048;2023-08-12T14:08:03;22.00;77.70
49222;DHT22;35047;37.588;-122.048;2023-08-12T14:10:29;22.10;77.90
49222;DHT22;35047;37.588;-122.048;2023-08-12T14:12:56;22.20;78.10
49222;DHT22;35047;37.588;-122.048;2023-08-12T14:15:22;22.20;77.80
49222;DHT22;35047;37.588;-122.048;2023-08-12T14:17:49;22.20;77.80
49222;DHT22;35047;37.588;-122.048;2023-08-12T14:20:15;22.30;77.70
49222;DHT22;35047;37.588;-122.048;2023-08-12T14:22:42;22.40;77.80
49222;DHT22;35047;37.588;-122.048;2023-08-12T14:25:10;22.40;77.90
49222;DHT22;35047;37.588;-122.048;2023-08-12T14:27:37;22.40;77.80
49222;DHT22;35047;37.588;-122.048;2023-08-12T14:30:04;22.50;77.50
49222;DHT22;35047;37.588;-122.048;2023-08-12T14:32:30;22.50;77.60
49222;DHT22;35047;37.588;-122.048;2023-08-12T14:34:56;22.60;77.50
49222;DHT22;35047;37.588;-122.048;2023-08-12T14:37:23;22.70;77.60
49222;DHT22;35047;37.588;-122.048;2023-08-12T14:39:49;22.80;76.90
49222;DHT22;35047;37.588;-122.048;2023-08-12T14:42:16;22.80;76.70
49222;DHT22;35047;37.588;-122.048;2023-08-12T14:44:42;22.80;76.80
49222;DHT22;35047;37.588;-122.048;2023-08-12T14:47:09;22.90;76.60
49222;DHT22;35047;37.588;-122.048;2023-08-12T14:49:35;22.90;76.30
49222;DHT22;35047;37.588;-122.048;2023-08-12T14:52:02;22.90;76.80
49222;DHT22;35047;37.588;-122.048;2023-08-12T14:54:29;23.00;76.30
49222;DHT22;35047;37.588;-122.048;2023-08-12T14:56:55;23.10;76.50
49222;DHT22;35047;37.588;-122.048;2023-08-12T14:59:22;23.10;76.50
49222;DHT22;35047;37.588;-122.048;2023-08-12T15:01:48;23.10;76.50
49222;DHT22;35047;37.588;-122.048;2023-08-12T15:04:14;23.20;76.20